sensor_id;sensor_type;location;lat;lon;timestamp;pressure;altitude;pressure_sealevel;temperature;humidity
51439;BME280;38816;51.142;-0.974;2023-04-07T00:01:20;100403.22;;;3.50;100.00
51439;BME280;38816;51.142;-0.974;2023-04-07T00:03:46;100410.94;;;3.52;100.00
51439;BME280;38816;51.142;-0.974;2023-04-07T00:06:12;100411.78;;;3.52;100.00
51439;BME280;38816;51.142;-0.974;2023-04-07T00:08:37;100386.38;;;3.35;100.00
51439;BME280;38816;51.142;-0.974;2023-04-07T00:11:03;100412.44;;;3.48;100.00
51439;BME280;38816;51.142;-0.974;2023-04-07T00:13:28;100405.41;;;3.43;100.00
51439;BME280;38816;51.142;-0.974;2023-04-07T00:15:54;100420.28;;;3.53;100.00
51439;BME280;38816;51.142;-0.974;2023-04-07T00:18:19;100410.56;;;3.44;100.00
51439;BME280;38816;51.142;-0.974;2023-04-07T00:20:44;100426.81;;;3.48;100.00
51439;BME280;38816;51.142;-0.974;2023-04-07T00:23:10;100418.66;;;3.37;100.00
51439;BME280;38816;51.142;-0.974;2023-04-07T00:25:35;100429.00;;;3.40;100.00
51439;BME280;38816;51.142;-0.974;2023-04-07T00:28:01;100427.03;;;3.35;100.00
51439;BME280;38816;51.142;-0.974;2023-04-07T00:30:26;100417.34;;;3.27;100.00
51439;BME280;38816;51.142;-0.974;2023-04-07T00:32:51;100427.84;;;3.34;100.00
51439;BME280;38816;51.142;-0.974;2023-04-07T00:35:17;100434.56;;;3.33;100.00
51439;BME280;38816;51.142;-0.974;2023-04-07T00:37:42;100429.41;;;3.32;100.00
51439;BME280;38816;51.142;-0.974;2023-04-07T00:40:08;100424.53;;;3.18;100.00
51439;BME280;38816;51.142;-0.974;2023-04-07T00:42:33;100433.88;;;3.19;100.00
51439;BME280;38816;51.142;-0.974;2023-04-07T00:44:59;100429.50;;;3.15;100.00
51439;BME280;38816;51.142;-0.974;2023-04-07T00:47:25;100426.94;;;3.15;100.00
51439;BME280;38816;51.142;-0.974;2023-04-07T00:49:50;100432.16;;;3.18;100.00
51439;BME280;38816;51.142;-0.974;2023-04-07T00:52:16;100427.19;;;3.20;100.00
51439;BME280;38816;51.142;-0.974;2023-04-07T00:54:43;100417.56;;;3.14;100.00
51439;BME280;38816;51.142;-0.974;2023-04-07T00:57:11;100420.09;;;3.14;100.00
51439;BME280;38816;51.142;-0.974;2023-04-07T00:59:36;100418.19;;;3.10;100.00
51439;BME280;38816;51.142;-0.974;2023-04-07T01:02:41;100431.13;;;3.15;100.00
51439;BME280;38816;51.142;-0.974;2023-04-07T01:11:24;100409.38;;;3.02;100.00
51439;BME280;38816;51.142;-0.974;2023-04-07T01:13:48;100404.34;;;3.03;100.00
51439;BME280;38816;51.142;-0.974;2023-04-07T01:16:22;100412.03;;;3.05;100.00
51439;BME280;38816;51.142;-0.974;2023-04-07T01:18:51;100429.16;;;3.09;100.00
51439;BME280;38816;51.142;-0.974;2023-04-07T01:21:18;100407.31;;;2.95;100.00
51439;BME280;38816;51.142;-0.974;2023-04-07T01:26:48;100421.25;;;3.03;100.00
51439;BME280;38816;51.142;-0.974;2023-04-07T01:29:36;100421.25;;;3.03;100.00
51439;BME280;38816;51.142;-0.974;2023-04-07T01:32:04;100405.47;;;2.92;100.00
51439;BME280;38816;51.142;-0.974;2023-04-07T01:34:31;100411.59;;;2.96;100.00
51439;BME280;38816;51.142;-0.974;2023-04-07T01:36:58;100420.22;;;2.99;100.00
51439;BME280;38816;51.142;-0.974;2023-04-07T01:39:26;100422.78;;;2.99;100.00
51439;BME280;38816;51.142;-0.974;2023-04-07T01:41:53;100409.84;;;2.95;100.00
51439;BME280;38816;51.142;-0.974;2023-04-07T01:44:19;100408.25;;;2.97;100.00
51439;BME280;38816;51.142;-0.974;2023-04-07T01:46:46;100411.16;;;3.04;100.00
51439;BME280;38816;51.142;-0.974;2023-04-07T01:49:12;100405.84;;;3.00;100.00
51439;BME280;38816;51.142;-0.974;2023-04-07T01:51:38;100403.47;;;3.03;100.00
51439;BME280;38816;51.142;-0.974;2023-04-07T01:54:05;100402.69;;;3.04;100.00
51439;BME280;38816;51.142;-0.974;2023-04-07T01:56:30;100403.47;;;3.03;100.00
51439;BME280;38816;51.142;-0.974;2023-04-07T01:58:56;100393.97;;;2.99;100.00
51439;BME280;38816;51.142;-0.974;2023-04-07T02:01:21;100389.34;;;3.08;100.00
51439;BME280;38816;51.142;-0.974;2023-04-07T02:04:24;100407.78;;;3.22;100.00
51439;BME280;38816;51.142;-0.974;2023-04-07T02:06:59;100405.63;;;3.29;100.00
51439;BME280;38816;51.142;-0.974;2023-04-07T02:09:29;100405.03;;;3.35;100.00
51439;BME280;38816;51.142;-0.974;2023-04-07T02:11:57;100403.94;;;3.48;100.00
51439;BME280;38816;51.142;-0.974;2023-04-07T02:14:24;100403.50;;;3.57;100.00
51439;BME280;38816;51.142;-0.974;2023-04-07T02:16:51;100395.66;;;3.70;100.00
51439;BME280;38816;51.142;-0.974;2023-04-07T02:19:17;100402.69;;;3.75;100.00
51439;BME280;38816;51.142;-0.974;2023-04-07T02:21:44;100395.66;;;3.70;100.00
51439;BME280;38816;51.142;-0.974;2023-04-07T02:24:11;100406.03;;;3.74;100.00
51439;BME280;38816;51.142;-0.974;2023-04-07T02:26:36;100405.84;;;3.70;100.00
51439;BME280;38816;51.142;-0.974;2023-04-07T02:29:03;100416.66;;;3.66;100.00
51439;BME280;38816;51.142;-0.974;2023-04-07T02:31:28;100410.69;;;3.65;100.00
51439;BME280;38816;51.142;-0.974;2023-04-07T02:33:54;100396.00;;;3.60;100.00
51439;BME280;38816;51.142;-0.974;2023-04-07T02:36:20;100405.03;;;3.53;100.00
51439;BME280;38816;51.142;-0.974;2023-04-07T02:38:45;100411.84;;;3.54;100.00
51439;BME280;38816;51.142;-0.974;2023-04-07T02:41:10;100415.34;;;3.56;100.00
51439;BME280;38816;51.142;-0.974;2023-04-07T02:43:36;100403.63;;;3.42;100.00
51439;BME280;38816;51.142;-0.974;2023-04-07T02:46:01;100414.03;;;3.46;100.00
51439;BME280;38816;51.142;-0.974;2023-04-07T02:48:27;100404.59;;;3.44;100.00
51439;BME280;38816;51.142;-0.974;2023-04-07T02:50:52;100414.03;;;3.46;100.00
51439;BME280;38816;51.142;-0.974;2023-04-07T02:53:17;100423.75;;;3.55;100.00
51439;BME280;38816;51.142;-0.974;2023-04-07T02:55:43;100410.84;;;3.50;100.00
51439;BME280;38816;51.142;-0.974;2023-04-07T02:58:08;100397.63;;;3.40;100.00
51439;BME280;38816;51.142;-0.974;2023-04-07T03:00:33;100410.56;;;3.44;100.00
51439;BME280;38816;51.142;-0.974;2023-04-07T03:02:59;100410.34;;;3.40;100.00
51439;BME280;38816;51.142;-0.974;2023-04-07T03:05:25;100408.44;;;3.36;100.00
51439;BME280;38816;51.142;-0.974;2023-04-07T03:07:50;100411.84;;;3.36;100.00
51439;BME280;38816;51.142;-0.974;2023-04-07T03:10:16;100425.75;;;3.43;100.00
51439;BME280;38816;51.142;-0.974;2023-04-07T03:12:42;100421.84;;;3.33;100.00
51439;BME280;38816;51.142;-0.974;2023-04-07T03:15:08;100422.59;;;3.30;100.00
51439;BME280;38816;51.142;-0.974;2023-04-07T03:17:34;100412.00;;;3.21;100.00
51439;BME280;38816;51.142;-0.974;2023-04-07T03:19:59;100404.84;;;3.14;100.00
51439;BME280;38816;51.142;-0.974;2023-04-07T03:22:25;100411.84;;;3.18;100.00
51439;BME280;38816;51.142;-0.974;2023-04-07T03:24:50;100410.91;;;3.16;100.00
51439;BME280;38816;51.142;-0.974;2023-04-07T03:27:15;100413.44;;;3.16;100.00
51439;BME280;38816;51.142;-0.974;2023-04-07T03:29:41;100424.69;;;3.21;100.00
51439;BME280;38816;51.142;-0.974;2023-04-07T03:32:07;100416.63;;;3.12;100.00
51439;BME280;38816;51.142;-0.974;2023-04-07T03:34:33;100397.75;;;3.07;100.00
51439;BME280;38816;51.142;-0.974;2023-04-07T03:36:58;100425.56;;;3.22;100.00
51439;BME280;38816;51.142;-0.974;2023-04-07T03:39:23;100404.00;;;3.14;100.00
51439;BME280;38816;51.142;-0.974;2023-04-07T03:41:49;100422.16;;;3.21;100.00
51439;BME280;38816;51.142;-0.974;2023-04-07T03:44:15;100427.31;;;3.23;100.00
51439;BME280;38816;51.142;-0.974;2023-04-07T03:46:41;100424.06;;;3.25;100.00
51439;BME280;38816;51.142;-0.974;2023-04-07T03:49:06;100411.19;;;3.22;100.00
51439;BME280;38816;51.142;-0.974;2023-04-07T03:51:32;100423.72;;;3.19;100.00
51439;BME280;38816;51.142;-0.974;2023-04-07T03:53:58;100420.31;;;3.19;100.00
51439;BME280;38816;51.142;-0.974;2023-04-07T03:56:23;100418.53;;;3.16;100.00
51439;BME280;38816;51.142;-0.974;2023-04-07T03:58:49;100413.44;;;3.16;100.00
51439;BME280;38816;51.142;-0.974;2023-04-07T04:03:45;100408.38;;;3.16;100.00
51439;BME280;38816;51.142;-0.974;2023-04-07T04:06:11;100411.72;;;3.15;100.00
51439;BME280;38816;51.142;-0.974;2023-04-07T04:08:36;100414.97;;;3.13;100.00
51439;BME280;38816;51.142;-0.974;2023-04-07T04:11:01;100403.72;;;3.08;100.00
51439;BME280;38816;51.142;-0.974;2023-04-07T04:13:27;100416.47;;;3.09;100.00
51439;BME280;38816;51.142;-0.974;2023-04-07T04:15:52;100422.34;;;3.08;100.00
51439;BME280;38816;51.142;-0.974;2023-04-07T04:18:18;100420.75;;;3.10;100.00
51439;BME280;38816;51.142;-0.974;2023-04-07T04:20:43;100427.28;;;3.05;100.00
51439;BME280;38816;51.142;-0.974;2023-04-07T04:23:08;100423.06;;;3.05;100.00
51439;BME280;38816;51.142;-0.974;2023-04-07T04:25:34;100429.75;;;3.03;100.00
51439;BME280;38816;51.142;-0.974;2023-04-07T04:28:00;100429.75;;;3.03;100.00
51439;BME280;38816;51.142;-0.974;2023-04-07T04:30:25;100433.44;;;3.10;100.00
51439;BME280;38816;51.142;-0.974;2023-04-07T04:32:50;100426.78;;;3.12;100.00
51439;BME280;38816;51.142;-0.974;2023-04-07T04:35:16;100426.94;;;3.15;100.00
51439;BME280;38816;51.142;-0.974;2023-04-07T04:37:41;100434.69;;;3.18;100.00
51439;BME280;38816;51.142;-0.974;2023-04-07T04:40:07;100431.28;;;3.18;100.00
51439;BME280;38816;51.142;-0.974;2023-04-07T04:42:34;100437.25;;;3.18;100.00
51439;BME280;38816;51.142;-0.974;2023-04-07T04:44:59;100438.97;;;3.19;100.00
51439;BME280;38816;51.142;-0.974;2023-04-07T04:47:25;100447.41;;;3.18;100.00
51439;BME280;38816;51.142;-0.974;2023-04-07T04:49:51;100448.03;;;3.14;100.00
51439;BME280;38816;51.142;-0.974;2023-04-07T04:52:16;100454.09;;;3.16;100.00
51439;BME280;38816;51.142;-0.974;2023-04-07T04:54:42;100443.53;;;3.09;100.00
51439;BME280;38816;51.142;-0.974;2023-04-07T04:57:07;100459.81;;;3.12;100.00
51439;BME280;38816;51.142;-0.974;2023-04-07T04:59:33;100463.28;;;3.14;100.00
51439;BME280;38816;51.142;-0.974;2023-04-07T05:01:58;100451.88;;;3.06;100.00
51439;BME280;38816;51.142;-0.974;2023-04-07T05:04:23;100467.25;;;3.09;100.00
51439;BME280;38816;51.142;-0.974;2023-04-07T05:06:49;100466.97;;;3.03;100.00
51439;BME280;38816;51.142;-0.974;2023-04-07T05:09:15;100475.88;;;2.95;100.00
51439;BME280;38816;51.142;-0.974;2023-04-07T05:11:41;100476.28;;;2.86;100.00
51439;BME280;38816;51.142;-0.974;2023-04-07T05:14:07;100471.75;;;2.81;100.00
51439;BME280;38816;51.142;-0.974;2023-04-07T05:16:32;100461.94;;;2.70;100.00
51439;BME280;38816;51.142;-0.974;2023-04-07T05:18:57;100456.75;;;2.69;100.00
51439;BME280;38816;51.142;-0.974;2023-04-07T05:21:23;100473.25;;;2.77;100.00
51439;BME280;38816;51.142;-0.974;2023-04-07T05:23:48;100469.06;;;2.77;100.00
51439;BME280;38816;51.142;-0.974;2023-04-07T05:26:13;100470.97;;;2.82;100.00
51439;BME280;38816;51.142;-0.974;2023-04-07T05:28:39;100456.06;;;2.71;100.00
51439;BME280;38816;51.142;-0.974;2023-04-07T05:31:05;100471.19;;;2.70;100.00
51439;BME280;38816;51.142;-0.974;2023-04-07T05:33:30;100476.84;;;2.64;100.00
51439;BME280;38816;51.142;-0.974;2023-04-07T05:35:56;100477.97;;;2.53;100.00
51439;BME280;38816;51.142;-0.974;2023-04-07T05:38:21;100485.78;;;2.41;100.00
51439;BME280;38816;51.142;-0.974;2023-04-07T05:40:46;100479.81;;;2.24;100.00
51439;BME280;38816;51.142;-0.974;2023-04-07T05:43:12;100484.56;;;2.18;100.00
51439;BME280;38816;51.142;-0.974;2023-04-07T05:45:37;100492.09;;;2.17;100.00
51439;BME280;38816;51.142;-0.974;2023-04-07T05:48:03;100492.63;;;2.11;100.00
51439;BME280;38816;51.142;-0.974;2023-04-07T05:50:28;100497.44;;;2.07;100.00
51439;BME280;38816;51.142;-0.974;2023-04-07T05:52:53;100495.63;;;2.04;100.00
51439;BME280;38816;51.142;-0.974;2023-04-07T05:55:19;100478.00;;;1.91;100.00
51439;BME280;38816;51.142;-0.974;2023-04-07T05:57:44;100498.50;;;2.10;100.00
51439;BME280;38816;51.142;-0.974;2023-04-07T06:00:10;100490.69;;;2.22;100.00
51439;BME280;38816;51.142;-0.974;2023-04-07T06:02:36;100509.47;;;2.42;100.00
51439;BME280;38816;51.142;-0.974;2023-04-07T06:05:01;100518.06;;;2.44;100.00
51439;BME280;38816;51.142;-0.974;2023-04-07T06:07:26;100505.34;;;2.27;100.00
51439;BME280;38816;51.142;-0.974;2023-04-07T06:09:52;100517.34;;;2.30;100.00
51439;BME280;38816;51.142;-0.974;2023-04-07T06:12:17;100517.59;;;2.35;100.00
51439;BME280;38816;51.142;-0.974;2023-04-07T06:14:49;100515.13;;;2.36;100.00
51439;BME280;38816;51.142;-0.974;2023-04-07T06:17:15;100522.75;;;2.52;100.00
51439;BME280;38816;51.142;-0.974;2023-04-07T06:19:40;100516.41;;;2.61;100.00
51439;BME280;38816;51.142;-0.974;2023-04-07T06:22:06;100526.97;;;2.68;100.00
51439;BME280;38816;51.142;-0.974;2023-04-07T06:24:31;100520.22;;;2.69;100.00
51439;BME280;38816;51.142;-0.974;2023-04-07T06:26:57;100512.22;;;2.61;100.00
51439;BME280;38816;51.142;-0.974;2023-04-07T06:29:22;100534.44;;;2.82;100.00
51439;BME280;38816;51.142;-0.974;2023-04-07T06:31:48;100536.25;;;2.84;100.00
51439;BME280;38816;51.142;-0.974;2023-04-07T06:34:13;100539.91;;;2.89;100.00
51439;BME280;38816;51.142;-0.974;2023-04-07T06:36:39;100527.13;;;2.88;100.00
51439;BME280;38816;51.142;-0.974;2023-04-07T06:39:04;100546.25;;;2.97;100.00
51439;BME280;38816;51.142;-0.974;2023-04-07T06:41:29;100535.53;;;2.87;100.00
51439;BME280;38816;51.142;-0.974;2023-04-07T06:43:56;100553.22;;;3.01;100.00
51439;BME280;38816;51.142;-0.974;2023-04-07T06:46:21;100544.72;;;3.01;100.00
51439;BME280;38816;51.142;-0.974;2023-04-07T06:48:46;100560.91;;;3.19;100.00
51439;BME280;38816;51.142;-0.974;2023-04-07T06:51:12;100568.22;;;3.29;100.00
51439;BME280;38816;51.142;-0.974;2023-04-07T06:53:37;100582.66;;;3.47;100.00
51439;BME280;38816;51.142;-0.974;2023-04-07T06:56:04;100571.78;;;3.67;100.00
51439;BME280;38816;51.142;-0.974;2023-04-07T06:58:30;100564.16;;;3.67;100.00
51439;BME280;38816;51.142;-0.974;2023-04-07T07:00:55;100583.38;;;3.78;100.00
51439;BME280;38816;51.142;-0.974;2023-04-07T07:03:21;100577.59;;;3.83;100.00
51439;BME280;38816;51.142;-0.974;2023-04-07T07:05:46;100573.31;;;3.81;100.00
51439;BME280;38816;51.142;-0.974;2023-04-07T07:08:11;100560.16;;;3.72;100.00
51439;BME280;38816;51.142;-0.974;2023-04-07T07:10:37;100562.28;;;3.81;100.00
51439;BME280;38816;51.142;-0.974;2023-04-07T07:13:02;100575.44;;;3.90;100.00
51439;BME280;38816;51.142;-0.974;2023-04-07T07:15:27;100570.53;;;3.93;100.00
51439;BME280;38816;51.142;-0.974;2023-04-07T07:17:53;100584.69;;;4.06;100.00
51439;BME280;38816;51.142;-0.974;2023-04-07T07:20:18;100588.47;;;4.14;100.00
51439;BME280;38816;51.142;-0.974;2023-04-07T07:22:43;100588.13;;;4.24;100.00
51439;BME280;38816;51.142;-0.974;2023-04-07T07:25:09;100587.09;;;4.39;100.00
51439;BME280;38816;51.142;-0.974;2023-04-07T07:27:34;100593.44;;;4.66;100.00
51439;BME280;38816;51.142;-0.974;2023-04-07T07:30:00;100592.81;;;4.90;100.00
51439;BME280;38816;51.142;-0.974;2023-04-07T07:32:25;100579.19;;;5.08;100.00
51439;BME280;38816;51.142;-0.974;2023-04-07T07:34:51;100585.22;;;5.30;100.00
51439;BME280;38816;51.142;-0.974;2023-04-07T07:37:16;100583.00;;;5.38;100.00
51439;BME280;38816;51.142;-0.974;2023-04-07T07:39:42;100575.41;;;5.39;100.00
51439;BME280;38816;51.142;-0.974;2023-04-07T07:42:07;100590.53;;;5.54;100.00
51439;BME280;38816;51.142;-0.974;2023-04-07T07:44:32;100588.22;;;5.60;100.00
51439;BME280;38816;51.142;-0.974;2023-04-07T07:46:58;100572.97;;;5.62;100.00
51439;BME280;38816;51.142;-0.974;2023-04-07T07:49:23;100601.69;;;5.77;100.00
51439;BME280;38816;51.142;-0.974;2023-04-07T07:51:48;100584.31;;;5.68;100.00
51439;BME280;38816;51.142;-0.974;2023-04-07T07:54:14;100589.59;;;5.73;100.00
51439;BME280;38816;51.142;-0.974;2023-04-07T07:56:39;100587.06;;;5.73;100.00
51439;BME280;38816;51.142;-0.974;2023-04-07T07:59:05;100601.06;;;5.82;100.00
51439;BME280;38816;51.142;-0.974;2023-04-07T08:01:30;100601.09;;;5.84;100.00
51439;BME280;38816;51.142;-0.974;2023-04-07T08:03:56;100597.00;;;5.88;100.00
51439;BME280;38816;51.142;-0.974;2023-04-07T08:06:21;100590.34;;;5.91;100.00
51439;BME280;38816;51.142;-0.974;2023-04-07T08:08:47;100602.06;;;6.07;100.00
51439;BME280;38816;51.142;-0.974;2023-04-07T08:11:13;100591.13;;;6.09;100.00
51439;BME280;38816;51.142;-0.974;2023-04-07T08:13:38;100600.00;;;6.19;100.00
51439;BME280;38816;51.142;-0.974;2023-04-07T08:16:04;100596.78;;;6.23;100.00
51439;BME280;38816;51.142;-0.974;2023-04-07T08:18:29;100592.03;;;6.32;100.00
51439;BME280;38816;51.142;-0.974;2023-04-07T08:20:55;100596.97;;;6.50;100.00
51439;BME280;38816;51.142;-0.974;2023-04-07T08:23:21;100603.34;;;6.62;100.00
51439;BME280;38816;51.142;-0.974;2023-04-07T08:25:47;100601.22;;;6.72;100.00
51439;BME280;38816;51.142;-0.974;2023-04-07T08:28:12;100593.72;;;6.77;100.00
51439;BME280;38816;51.142;-0.974;2023-04-07T08:30:37;100611.28;;;6.92;100.00
51439;BME280;38816;51.142;-0.974;2023-04-07T08:33:04;100599.56;;;6.97;100.00
51439;BME280;38816;51.142;-0.974;2023-04-07T08:35:30;100610.34;;;7.12;100.00
51439;BME280;38816;51.142;-0.974;2023-04-07T08:37:55;100612.38;;;7.21;100.00
51439;BME280;38816;51.142;-0.974;2023-04-07T08:40:21;100619.47;;;7.29;100.00
51439;BME280;38816;51.142;-0.974;2023-04-07T08:42:47;100624.94;;;7.39;100.00
51439;BME280;38816;51.142;-0.974;2023-04-07T08:45:16;100610.56;;;7.42;100.00
51439;BME280;38816;51.142;-0.974;2023-04-07T08:47:43;100622.94;;;7.55;100.00
51439;BME280;38816;51.142;-0.974;2023-04-07T08:50:11;100614.56;;;7.59;100.00
51439;BME280;38816;51.142;-0.974;2023-04-07T08:52:48;100622.81;;;7.76;100.00
51439;BME280;38816;51.142;-0.974;2023-04-07T08:55:14;100622.31;;;7.86;100.00
51439;BME280;38816;51.142;-0.974;2023-04-07T08:57:42;100606.78;;;7.82;100.00
51439;BME280;38816;51.142;-0.974;2023-04-07T09:00:09;100608.75;;;7.89;100.00
51439;BME280;38816;51.142;-0.974;2023-04-07T09:02:38;100606.50;;;7.98;100.00
51439;BME280;38816;51.142;-0.974;2023-04-07T09:05:06;100616.34;;;8.13;100.00
51439;BME280;38816;51.142;-0.974;2023-04-07T09:07:33;100607.03;;;8.15;100.00
51439;BME280;38816;51.142;-0.974;2023-04-07T09:10:01;100615.09;;;8.27;100.00
51439;BME280;38816;51.142;-0.974;2023-04-07T09:12:27;100613.63;;;8.34;100.00
51439;BME280;38816;51.142;-0.974;2023-04-07T09:14:53;100614.06;;;8.48;100.00
51439;BME280;38816;51.142;-0.974;2023-04-07T09:17:19;100621.25;;;8.59;100.00
51439;BME280;38816;51.142;-0.974;2023-04-07T09:19:46;100624.06;;;8.67;100.00
51439;BME280;38816;51.142;-0.974;2023-04-07T09:22:11;100626.72;;;8.70;100.00
51439;BME280;38816;51.142;-0.974;2023-04-07T09:24:39;100612.16;;;8.69;100.00
51439;BME280;38816;51.142;-0.974;2023-04-07T09:27:08;100626.16;;;8.80;100.00
51439;BME280;38816;51.142;-0.974;2023-04-07T09:29:35;100622.97;;;8.87;100.00
51439;BME280;38816;51.142;-0.974;2023-04-07T09:32:00;100623.41;;;9.03;100.00
51439;BME280;38816;51.142;-0.974;2023-04-07T09:34:31;100615.22;;;9.16;100.00
51439;BME280;38816;51.142;-0.974;2023-04-07T09:36:57;100605.72;;;9.13;100.00
51439;BME280;38816;51.142;-0.974;2023-04-07T09:39:23;100606.91;;;9.25;100.00
51439;BME280;38816;51.142;-0.974;2023-04-07T09:41:49;100616.47;;;9.30;100.00
51439;BME280;38816;51.142;-0.974;2023-04-07T09:44:15;100606.34;;;9.35;100.00
51439;BME280;38816;51.142;-0.974;2023-04-07T09:46:55;100604.06;;;9.46;100.00
51439;BME280;38816;51.142;-0.974;2023-04-07T09:49:21;100603.41;;;9.54;100.00
51439;BME280;38816;51.142;-0.974;2023-04-07T09:54:34;100618.59;;;9.78;100.00
51439;BME280;38816;51.142;-0.974;2023-04-07T09:57:00;100610.28;;;9.88;100.00
51439;BME280;38816;51.142;-0.974;2023-04-07T09:59:31;100614.94;;;10.03;100.00
51439;BME280;38816;51.142;-0.974;2023-04-07T10:01:57;100605.94;;;10.21;100.00
51439;BME280;38816;51.142;-0.974;2023-04-07T10:04:23;100605.44;;;10.35;100.00
51439;BME280;38816;51.142;-0.974;2023-04-07T10:06:51;100605.69;;;10.45;99.11
51439;BME280;38816;51.142;-0.974;2023-04-07T10:09:17;100614.09;;;10.37;98.42
51439;BME280;38816;51.142;-0.974;2023-04-07T10:11:43;100604.19;;;10.18;96.58
51439;BME280;38816;51.142;-0.974;2023-04-07T10:14:10;100612.56;;;10.11;90.56
51439;BME280;38816;51.142;-0.974;2023-04-07T10:16:37;100610.53;;;9.98;89.37
51439;BME280;38816;51.142;-0.974;2023-04-07T10:19:03;100610.59;;;10.01;87.65
51439;BME280;38816;51.142;-0.974;2023-04-07T10:21:33;100608.66;;;10.25;89.65
51439;BME280;38816;51.142;-0.974;2023-04-07T10:26:46;100610.00;;;10.46;86.09
51439;BME280;38816;51.142;-0.974;2023-04-07T10:29:15;100608.19;;;10.81;85.89
51439;BME280;38816;51.142;-0.974;2023-04-07T10:31:42;100605.47;;;11.15;86.94
51439;BME280;38816;51.142;-0.974;2023-04-07T10:34:07;100608.44;;;11.35;86.70
51439;BME280;38816;51.142;-0.974;2023-04-07T10:36:33;100614.72;;;11.51;84.78
51439;BME280;38816;51.142;-0.974;2023-04-07T10:44:04;100598.94;;;12.33;76.63
51439;BME280;38816;51.142;-0.974;2023-04-07T10:49:14;100613.22;;;12.68;68.68
51439;BME280;38816;51.142;-0.974;2023-04-07T10:51:41;100604.81;;;12.82;68.16
51439;BME280;38816;51.142;-0.974;2023-04-07T10:54:19;100603.94;;;12.81;65.91
51439;BME280;38816;51.142;-0.974;2023-04-07T10:57:16;100611.00;;;12.95;69.43
51439;BME280;38816;51.142;-0.974;2023-04-07T11:02:33;100607.06;;;12.59;65.84
51439;BME280;38816;51.142;-0.974;2023-04-07T11:04:59;100611.13;;;12.41;71.28
51439;BME280;38816;51.142;-0.974;2023-04-07T11:07:45;100611.69;;;12.22;71.93
51439;BME280;38816;51.142;-0.974;2023-04-07T11:10:12;100607.47;;;12.29;69.79
51439;BME280;38816;51.142;-0.974;2023-04-07T11:12:40;100605.16;;;12.46;72.38
51439;BME280;38816;51.142;-0.974;2023-04-07T11:15:21;100606.75;;;12.37;66.03
51439;BME280;38816;51.142;-0.974;2023-04-07T11:23:11;100605.34;;;12.58;70.97
51439;BME280;38816;51.142;-0.974;2023-04-07T11:25:37;100599.59;;;12.79;69.01
51439;BME280;38816;51.142;-0.974;2023-04-07T11:28:03;100606.69;;;12.95;70.77
51439;BME280;38816;51.142;-0.974;2023-04-07T11:30:29;100589.03;;;12.60;65.91
51439;BME280;38816;51.142;-0.974;2023-04-07T11:32:55;100599.31;;;12.57;65.63
51439;BME280;38816;51.142;-0.974;2023-04-07T11:35:22;100604.84;;;12.83;66.88
51439;BME280;38816;51.142;-0.974;2023-04-07T11:37:47;100606.75;;;13.01;67.88
51439;BME280;38816;51.142;-0.974;2023-04-07T11:40:30;100603.97;;;12.84;68.59
51439;BME280;38816;51.142;-0.974;2023-04-07T11:42:58;100609.72;;;12.63;66.79
51439;BME280;38816;51.142;-0.974;2023-04-07T11:45:24;100601.72;;;12.45;64.83
51439;BME280;38816;51.142;-0.974;2023-04-07T11:47:50;100599.25;;;12.53;64.32
51439;BME280;38816;51.142;-0.974;2023-04-07T11:50:16;100599.09;;;12.42;65.25
51439;BME280;38816;51.142;-0.974;2023-04-07T11:52:46;100597.34;;;12.39;65.74
51439;BME280;38816;51.142;-0.974;2023-04-07T11:55:19;100585.88;;;12.80;69.42
51439;BME280;38816;51.142;-0.974;2023-04-07T11:57:46;100600.16;;;13.23;70.20
51439;BME280;38816;51.142;-0.974;2023-04-07T12:00:13;100593.56;;;13.48;61.41
51439;BME280;38816;51.142;-0.974;2023-04-07T12:02:40;100598.91;;;13.66;62.34
51439;BME280;38816;51.142;-0.974;2023-04-07T12:05:06;100594.81;;;13.90;63.36
51439;BME280;38816;51.142;-0.974;2023-04-07T12:07:34;100596.69;;;14.08;55.86
51439;BME280;38816;51.142;-0.974;2023-04-07T12:10:17;100592.50;;;14.24;54.33
51439;BME280;38816;51.142;-0.974;2023-04-07T12:12:44;100602.94;;;14.39;57.31
51439;BME280;38816;51.142;-0.974;2023-04-07T12:15:10;100591.88;;;14.55;56.88
51439;BME280;38816;51.142;-0.974;2023-04-07T12:17:36;100598.84;;;14.70;54.38
51439;BME280;38816;51.142;-0.974;2023-04-07T12:20:01;100592.75;;;14.56;52.88
51439;BME280;38816;51.142;-0.974;2023-04-07T12:22:27;100599.66;;;14.63;53.42
51439;BME280;38816;51.142;-0.974;2023-04-07T12:24:52;100593.75;;;14.87;54.10
51439;BME280;38816;51.142;-0.974;2023-04-07T12:27:17;100586.09;;;15.16;55.33
51439;BME280;38816;51.142;-0.974;2023-04-07T12:29:43;100587.03;;;15.45;55.88
51439;BME280;38816;51.142;-0.974;2023-04-07T12:32:08;100580.97;;;15.43;51.77
51439;BME280;38816;51.142;-0.974;2023-04-07T12:34:34;100593.94;;;15.43;50.15
51439;BME280;38816;51.142;-0.974;2023-04-07T12:37:01;100588.78;;;15.53;55.24
51439;BME280;38816;51.142;-0.974;2023-04-07T12:39:27;100590.56;;;15.64;51.51
51439;BME280;38816;51.142;-0.974;2023-04-07T12:41:52;100588.72;;;15.34;50.25
51439;BME280;38816;51.142;-0.974;2023-04-07T12:44:18;100606.84;;;15.17;53.47
51439;BME280;38816;51.142;-0.974;2023-04-07T12:46:43;100588.63;;;15.04;49.08
51439;BME280;38816;51.142;-0.974;2023-04-07T12:49:08;100609.16;;;14.61;45.81
51439;BME280;38816;51.142;-0.974;2023-04-07T12:51:34;100599.25;;;14.09;48.74
51439;BME280;38816;51.142;-0.974;2023-04-07T12:54:00;100596.41;;;13.77;48.96
51439;BME280;38816;51.142;-0.974;2023-04-07T12:56:26;100595.16;;;13.34;48.91
51439;BME280;38816;51.142;-0.974;2023-04-07T12:58:52;100596.06;;;13.37;51.50
51439;BME280;38816;51.142;-0.974;2023-04-07T13:01:18;100594.72;;;13.82;49.51
51439;BME280;38816;51.142;-0.974;2023-04-07T13:03:44;100590.75;;;14.21;52.50
51439;BME280;38816;51.142;-0.974;2023-04-07T13:06:09;100580.72;;;14.70;50.88
51439;BME280;38816;51.142;-0.974;2023-04-07T13:08:38;100582.63;;;15.05;49.16
51439;BME280;38816;51.142;-0.974;2023-04-07T13:11:04;100591.38;;;15.45;52.38